sensor_id;sensor_type;location;lat;lon;timestamp;pressure;altitude;pressure_sealevel;temperature;humidity
70374;BME280;57792;49.198;7.890;2022-07-22T00:00:54;99187.16;;;16.19;69.92
70374;BME280;57792;49.198;7.890;2022-07-22T00:01:54;99186.94;;;16.22;69.56
70374;BME280;57792;49.198;7.890;2022-07-22T00:02:55;99190.00;;;16.31;69.38
70374;BME280;57792;49.198;7.890;2022-07-22T00:03:55;99189.81;;;16.34;69.35
70374;BME280;57792;49.198;7.890;2022-07-22T00:04:56;99187.38;;;16.30;69.33
70374;BME280;57792;49.198;7.890;2022-07-22T00:05:56;99191.81;;;16.31;69.39
70374;BME280;57792;49.198;7.890;2022-07-22T00:06:56;99187.31;;;16.31;69.22
70374;BME280;57792;49.198;7.890;2022-07-22T00:07:57;99179.22;;;16.31;69.32
70374;BME280;57792;49.198;7.890;2022-07-22T00:08:57;99179.94;;;16.35;68.96
70374;BME280;57792;49.198;7.890;2022-07-22T00:09:58;99181.06;;;16.31;69.26
70374;BME280;57792;49.198;7.890;2022-07-22T00:10:58;99180.19;;;16.30;69.09
70374;BME280;57792;49.198;7.890;2022-07-22T00:11:59;99181.88;;;16.17;69.41
70374;BME280;57792;49.198;7.890;2022-07-22T00:12:59;99178.88;;;16.22;69.19
70374;BME280;57792;49.198;7.890;2022-07-22T00:14:00;99185.50;;;16.16;69.64
70374;BME280;57792;49.198;7.890;2022-07-22T00:15:00;99183.25;;;16.08;69.88
70374;BME280;57792;49.198;7.890;2022-07-22T00:16:00;99179.78;;;16.06;69.98
70374;BME280;57792;49.198;7.890;2022-07-22T00:17:01;99189.94;;;16.17;69.31
70374;BME280;57792;49.198;7.890;2022-07-22T00:18:01;99174.13;;;16.11;70.05
70374;BME280;57792;49.198;7.890;2022-07-22T00:19:02;99174.84;;;16.15;69.36
70374;BME280;57792;49.198;7.890;2022-07-22T00:20:04;99174.06;;;16.12;69.87
70374;BME280;57792;49.198;7.890;2022-07-22T00:21:05;99169.28;;;15.86;71.29
70374;BME280;57792;49.198;7.890;2022-07-22T00:22:05;99176.13;;;15.92;70.70
70374;BME280;57792;49.198;7.890;2022-07-22T00:23:06;99176.47;;;16.01;70.36
70374;BME280;57792;49.198;7.890;2022-07-22T00:24:06;99182.56;;;16.05;70.11
70374;BME280;57792;49.198;7.890;2022-07-22T00:25:07;99172.50;;;16.08;69.52
70374;BME280;57792;49.198;7.890;2022-07-22T00:26:08;99177.50;;;15.99;70.11
70374;BME280;57792;49.198;7.890;2022-07-22T00:27:08;99180.38;;;15.96;70.05
70374;BME280;57792;49.198;7.890;2022-07-22T00:28:08;99178.56;;;15.81;70.95
70374;BME280;57792;49.198;7.890;2022-07-22T00:29:09;99171.78;;;15.89;70.17
70374;BME280;57792;49.198;7.890;2022-07-22T00:30:10;99172.06;;;16.00;69.57
70374;BME280;57792;49.198;7.890;2022-07-22T00:31:10;99180.03;;;16.02;69.82
70374;BME280;57792;49.198;7.890;2022-07-22T00:32:11;99175.53;;;16.02;69.88
70374;BME280;57792;49.198;7.890;2022-07-22T00:33:11;99180.03;;;16.02;70.09
70374;BME280;57792;49.198;7.890;2022-07-22T00:34:12;99174.56;;;16.03;69.96
70374;BME280;57792;49.198;7.890;2022-07-22T00:35:12;99169.19;;;16.03;70.12
70374;BME280;57792;49.198;7.890;2022-07-22T00:36:12;99173.78;;;16.01;70.00
70374;BME280;57792;49.198;7.890;2022-07-22T00:37:13;99175.78;;;15.98;69.98
70374;BME280;57792;49.198;7.890;2022-07-22T00:38:13;99181.84;;;16.01;69.82
70374;BME280;57792;49.198;7.890;2022-07-22T00:39:14;99165.97;;;15.97;69.96
70374;BME280;57792;49.198;7.890;2022-07-22T00:40:15;99164.31;;;15.94;70.08
70374;BME280;57792;49.198;7.890;2022-07-22T00:41:15;99180.28;;;15.97;70.02
70374;BME280;57792;49.198;7.890;2022-07-22T00:42:16;99183.16;;;15.94;70.38
70374;BME280;57792;49.198;7.890;2022-07-22T00:43:16;99186.88;;;15.92;70.50
70374;BME280;57792;49.198;7.890;2022-07-22T00:44:17;99179.19;;;15.86;70.42
70374;BME280;57792;49.198;7.890;2022-07-22T00:45:17;99175.88;;;15.81;70.92
70374;BME280;57792;49.198;7.890;2022-07-22T00:46:17;99179.50;;;15.79;70.71
70374;BME280;57792;49.198;7.890;2022-07-22T00:47:18;99178.56;;;15.81;70.88
70374;BME280;57792;49.198;7.890;2022-07-22T00:48:18;99182.63;;;15.88;70.68
70374;BME280;57792;49.198;7.890;2022-07-22T00:49:19;99181.88;;;15.86;70.59
70374;BME280;57792;49.198;7.890;2022-07-22T00:50:19;99178.22;;;15.87;70.62
70374;BME280;57792;49.198;7.890;2022-07-22T00:51:22;99182.91;;;15.50;71.97
70374;BME280;57792;49.198;7.890;2022-07-22T00:52:22;99186.00;;;15.58;71.65
70374;BME280;57792;49.198;7.890;2022-07-22T00:53:23;99188.31;;;15.66;71.49
70374;BME280;57792;49.198;7.890;2022-07-22T00:54:23;99185.69;;;15.64;71.69
70374;BME280;57792;49.198;7.890;2022-07-22T00:55:24;99182.88;;;15.67;71.44
70374;BME280;57792;49.198;7.890;2022-07-22T00:56:25;99180.78;;;15.72;70.89
70374;BME280;57792;49.198;7.890;2022-07-22T00:57:27;99182.63;;;15.72;71.04
70374;BME280;57792;49.198;7.890;2022-07-22T00:58:27;99186.97;;;15.74;71.15
70374;BME280;57792;49.198;7.890;2022-07-22T00:59:27;99185.31;;;15.72;71.10
70374;BME280;57792;49.198;7.890;2022-07-22T01:00:28;99178.34;;;15.68;71.23
70374;BME280;57792;49.198;7.890;2022-07-22T01:01:29;99182.63;;;15.72;71.56
70374;BME280;57792;49.198;7.890;2022-07-22T01:02:29;99187.59;;;15.62;72.13
70374;BME280;57792;49.198;7.890;2022-07-22T01:03:29;99185.22;;;15.56;72.52
70374;BME280;57792;49.198;7.890;2022-07-22T01:04:30;99184.19;;;15.59;71.55
70374;BME280;57792;49.198;7.890;2022-07-22T01:05:31;99176.81;;;15.46;72.23
70374;BME280;57792;49.198;7.890;2022-07-22T01:06:31;99178.63;;;15.46;72.25
70374;BME280;57792;49.198;7.890;2022-07-22T01:07:32;99182.19;;;15.46;72.02
70374;BME280;57792;49.198;7.890;2022-07-22T01:08:33;99171.28;;;15.50;71.85
70374;BME280;57792;49.198;7.890;2022-07-22T01:09:33;99168.59;;;15.50;72.27
70374;BME280;57792;49.198;7.890;2022-07-22T01:10:34;99175.63;;;15.52;72.28
70374;BME280;57792;49.198;7.890;2022-07-22T01:11:34;99187.84;;;15.58;72.26
70374;BME280;57792;49.198;7.890;2022-07-22T01:12:35;99178.13;;;15.55;72.33
70374;BME280;57792;49.198;7.890;2022-07-22T01:13:35;99190.59;;;15.56;72.40
70374;BME280;57792;49.198;7.890;2022-07-22T01:14:37;99188.69;;;15.58;71.89
70374;BME280;57792;49.198;7.890;2022-07-22T01:15:37;99168.34;;;15.54;71.87
70374;BME280;57792;49.198;7.890;2022-07-22T01:16:38;99182.47;;;15.58;72.19
70374;BME280;57792;49.198;7.890;2022-07-22T01:17:38;99184.63;;;15.51;72.89
70374;BME280;57792;49.198;7.890;2022-07-22T01:18:39;99166.19;;;15.28;73.99
70374;BME280;57792;49.198;7.890;2022-07-22T01:19:40;99176.41;;;15.21;74.45
70374;BME280;57792;49.198;7.890;2022-07-22T01:20:41;99175.28;;;15.25;74.36
70374;BME280;57792;49.198;7.890;2022-07-22T01:21:41;99174.72;;;15.36;73.41
70374;BME280;57792;49.198;7.890;2022-07-22T01:22:41;99174.22;;;15.45;73.42
70374;BME280;57792;49.198;7.890;2022-07-22T01:23:45;99181.31;;;15.46;73.32
70374;BME280;57792;49.198;7.890;2022-07-22T01:24:45;99168.31;;;15.38;72.98
70374;BME280;57792;49.198;7.890;2022-07-22T01:25:45;99169.09;;;15.40;72.72
70374;BME280;57792;49.198;7.890;2022-07-22T01:26:46;99177.38;;;15.36;72.62
70374;BME280;57792;49.198;7.890;2022-07-22T01:27:46;99171.22;;;15.34;72.55
70374;BME280;57792;49.198;7.890;2022-07-22T01:28:46;99180.06;;;15.36;72.28
70374;BME280;57792;49.198;7.890;2022-07-22T01:29:47;99186.47;;;15.33;72.65
70374;BME280;57792;49.198;7.890;2022-07-22T01:30:47;99180.25;;;15.33;72.43
70374;BME280;57792;49.198;7.890;2022-07-22T01:31:49;99185.63;;;15.33;72.64
70374;BME280;57792;49.198;7.890;2022-07-22T01:32:50;99182.22;;;15.29;73.14
70374;BME280;57792;49.198;7.890;2022-07-22T01:33:50;99185.63;;;15.33;72.50
70374;BME280;57792;49.198;7.890;2022-07-22T01:34:51;99180.47;;;15.28;72.78
70374;BME280;57792;49.198;7.890;2022-07-22T01:35:52;99194.00;;;15.27;73.08
70374;BME280;57792;49.198;7.890;2022-07-22T01:36:52;99182.81;;;15.19;73.07
70374;BME280;57792;49.198;7.890;2022-07-22T01:37:53;99187.75;;;15.26;72.48
70374;BME280;57792;49.198;7.890;2022-07-22T01:38:53;99169.63;;;15.14;72.39
70374;BME280;57792;49.198;7.890;2022-07-22T01:39:54;99185.16;;;15.25;72.20
70374;BME280;57792;49.198;7.890;2022-07-22T01:40:54;99189.84;;;15.21;72.72
70374;BME280;57792;49.198;7.890;2022-07-22T01:41:54;99184.41;;;15.05;73.17
70374;BME280;57792;49.198;7.890;2022-07-22T01:42:55;99192.06;;;15.13;72.79
70374;BME280;57792;49.198;7.890;2022-07-22T01:43:55;99179.56;;;15.12;72.70
70374;BME280;57792;49.198;7.890;2022-07-22T01:44:55;99190.00;;;15.18;72.85
70374;BME280;57792;49.198;7.890;2022-07-22T01:45:56;99181.06;;;15.18;72.69
70374;BME280;57792;49.198;7.890;2022-07-22T01:46:57;99178.91;;;15.24;72.26
70374;BME280;57792;49.198;7.890;2022-07-22T01:47:58;99183.25;;;15.27;72.15
70374;BME280;57792;49.198;7.890;2022-07-22T01:48:59;99181.66;;;15.23;72.41
70374;BME280;57792;49.198;7.890;2022-07-22T01:49:59;99189.41;;;15.29;72.41
70374;BME280;57792;49.198;7.890;2022-07-22T01:51:00;99182.38;;;15.26;72.43
70374;BME280;57792;49.198;7.890;2022-07-22T01:52:02;99180.81;;;15.22;72.43
70374;BME280;57792;49.198;7.890;2022-07-22T01:53:02;99171.03;;;15.21;72.44
70374;BME280;57792;49.198;7.890;2022-07-22T01:54:03;99176.13;;;15.26;72.30
70374;BME280;57792;49.198;7.890;2022-07-22T01:55:07;99181.78;;;15.21;72.54
70374;BME280;57792;49.198;7.890;2022-07-22T01:56:08;99177.44;;;15.19;72.52
70374;BME280;57792;49.198;7.890;2022-07-22T01:57:08;99182.72;;;15.20;72.34
70374;BME280;57792;49.198;7.890;2022-07-22T01:58:09;99177.28;;;15.22;72.28
70374;BME280;57792;49.198;7.890;2022-07-22T01:59:09;99157.69;;;15.02;72.59
70374;BME280;57792;49.198;7.890;2022-07-22T02:00:11;99183.84;;;15.16;72.48
70374;BME280;57792;49.198;7.890;2022-07-22T02:01:12;99180.81;;;15.22;72.39
70374;BME280;57792;49.198;7.890;2022-07-22T02:02:12;99185.41;;;15.20;72.46
70374;BME280;57792;49.198;7.890;2022-07-22T02:03:12;99186.28;;;15.21;72.25
70374;BME280;57792;49.198;7.890;2022-07-22T02:04:13;99193.22;;;15.25;71.99
70374;BME280;57792;49.198;7.890;2022-07-22T02:05:13;99189.94;;;15.02;73.67
70374;BME280;57792;49.198;7.890;2022-07-22T02:06:13;99192.84;;;14.98;73.27
70374;BME280;57792;49.198;7.890;2022-07-22T02:07:14;99190.94;;;15.00;72.94
70374;BME280;57792;49.198;7.890;2022-07-22T02:08:14;99193.63;;;15.00;72.97
70374;BME280;57792;49.198;7.890;2022-07-22T02:09:15;99188.97;;;15.03;72.75
70374;BME280;57792;49.198;7.890;2022-07-22T02:10:15;99192.22;;;15.10;72.57
70374;BME280;57792;49.198;7.890;2022-07-22T02:11:15;99181.94;;;15.01;72.81
70374;BME280;57792;49.198;7.890;2022-07-22T02:12:16;99189.94;;;15.02;72.56
70374;BME280;57792;49.198;7.890;2022-07-22T02:13:16;99185.34;;;15.04;72.58
70374;BME280;57792;49.198;7.890;2022-07-22T02:14:17;99197.50;;;15.11;72.42
70374;BME280;57792;49.198;7.890;2022-07-22T02:15:17;99191.66;;;15.03;73.15
70374;BME280;57792;49.198;7.890;2022-07-22T02:16:17;99187.94;;;15.06;72.72
70374;BME280;57792;49.198;7.890;2022-07-22T02:17:18;99174.75;;;15.01;72.79
70374;BME280;57792;49.198;7.890;2022-07-22T02:18:18;99188.25;;;15.00;72.88
70374;BME280;57792;49.198;7.890;2022-07-22T02:19:19;99192.38;;;15.07;72.86
70374;BME280;57792;49.198;7.890;2022-07-22T02:20:20;99195.13;;;15.05;73.13
70374;BME280;57792;49.198;7.890;2022-07-22T02:21:20;99189.06;;;15.02;73.13
70374;BME280;57792;49.198;7.890;2022-07-22T02:22:21;99185.25;;;15.06;73.15
70374;BME280;57792;49.198;7.890;2022-07-22T02:23:21;99187.41;;;14.99;73.06
70374;BME280;57792;49.198;7.890;2022-07-22T02:24:22;99184.31;;;15.07;72.84
70374;BME280;57792;49.198;7.890;2022-07-22T02:25:22;99182.66;;;15.04;72.83
70374;BME280;57792;49.198;7.890;2022-07-22T02:26:23;99179.19;;;15.02;72.78
70374;BME280;57792;49.198;7.890;2022-07-22T02:27:23;99190.00;;;15.01;72.69
70374;BME280;57792;49.198;7.890;2022-07-22T02:28:23;99175.72;;;15.00;72.76
70374;BME280;57792;49.198;7.890;2022-07-22T02:29:24;99183.75;;;15.00;73.14
70374;BME280;57792;49.198;7.890;2022-07-22T02:30:24;99183.91;;;14.97;73.07
70374;BME280;57792;49.198;7.890;2022-07-22T02:31:24;99194.50;;;15.00;73.15
70374;BME280;57792;49.198;7.890;2022-07-22T02:32:25;99185.81;;;14.95;73.01
70374;BME280;57792;49.198;7.890;2022-07-22T02:33:25;99183.84;;;14.99;72.78
70374;BME280;57792;49.198;7.890;2022-07-22T02:34:26;99183.75;;;15.00;73.02
70374;BME280;57792;49.198;7.890;2022-07-22T02:35:26;99181.16;;;14.99;73.27
70374;BME280;57792;49.198;7.890;2022-07-22T02:36:27;99176.81;;;14.96;73.19
70374;BME280;57792;49.198;7.890;2022-07-22T02:37:27;99180.53;;;14.94;73.53
70374;BME280;57792;49.198;7.890;2022-07-22T02:38:27;99177.13;;;14.90;73.39
70374;BME280;57792;49.198;7.890;2022-07-22T02:39:28;99179.81;;;14.90;73.16
70374;BME280;57792;49.198;7.890;2022-07-22T02:40:28;99172.75;;;14.89;73.41
70374;BME280;57792;49.198;7.890;2022-07-22T02:41:29;99178.72;;;14.94;73.23
70374;BME280;57792;49.198;7.890;2022-07-22T02:42:29;99183.88;;;14.82;74.11
70374;BME280;57792;49.198;7.890;2022-07-22T02:43:30;99181.50;;;14.75;74.49
70374;BME280;57792;49.198;7.890;2022-07-22T02:44:30;99171.63;;;14.76;73.79
70374;BME280;57792;49.198;7.890;2022-07-22T02:45:31;99179.59;;;14.77;74.10
70374;BME280;57792;49.198;7.890;2022-07-22T02:46:31;99170.91;;;14.72;74.21
70374;BME280;57792;49.198;7.890;2022-07-22T02:47:32;99190.19;;;14.81;73.91
70374;BME280;57792;49.198;7.890;2022-07-22T02:48:32;99178.81;;;14.75;74.28
70374;BME280;57792;49.198;7.890;2022-07-22T02:49:33;99174.06;;;14.81;74.28
70374;BME280;57792;49.198;7.890;2022-07-22T02:50:33;99175.66;;;14.85;73.92
70374;BME280;57792;49.198;7.890;2022-07-22T02:51:34;99186.41;;;14.85;73.99
70374;BME280;57792;49.198;7.890;2022-07-22T02:52:35;99173.75;;;14.69;74.34
70374;BME280;57792;49.198;7.890;2022-07-22T02:53:35;99174.47;;;14.73;74.01
70374;BME280;57792;49.198;7.890;2022-07-22T02:54:35;99180.69;;;14.73;73.94
70374;BME280;57792;49.198;7.890;2022-07-22T02:55:36;99179.75;;;14.74;73.98
70374;BME280;57792;49.198;7.890;2022-07-22T02:56:36;99178.97;;;14.72;74.10
70374;BME280;57792;49.198;7.890;2022-07-22T02:57:37;99183.31;;;14.75;73.75
70374;BME280;57792;49.198;7.890;2022-07-22T02:58:39;99184.25;;;14.74;73.90
70374;BME280;57792;49.198;7.890;2022-07-22T02:59:39;99183.22;;;14.76;73.71
70374;BME280;57792;49.198;7.890;2022-07-22T03:00:40;99182.59;;;14.71;73.94
70374;BME280;57792;49.198;7.890;2022-07-22T03:01:40;99186.00;;;14.75;73.74
70374;BME280;57792;49.198;7.890;2022-07-22T03:02:41;99172.00;;;14.68;73.46
70374;BME280;57792;49.198;7.890;2022-07-22T03:03:41;99184.47;;;14.69;73.70
70374;BME280;57792;49.198;7.890;2022-07-22T03:04:41;99186.72;;;14.60;74.38
70374;BME280;57792;49.198;7.890;2022-07-22T03:05:42;99189.31;;;14.61;74.20
70374;BME280;57792;49.198;7.890;2022-07-22T03:06:42;99190.94;;;14.65;74.19
70374;BME280;57792;49.198;7.890;2022-07-22T03:07:42;99187.59;;;14.60;74.34
70374;BME280;57792;49.198;7.890;2022-07-22T03:08:43;99171.63;;;14.57;74.27
70374;BME280;57792;49.198;7.890;2022-07-22T03:09:43;99190.28;;;14.60;74.03
70374;BME280;57792;49.198;7.890;2022-07-22T03:10:45;99177.44;;;14.67;73.83
70374;BME280;57792;49.198;7.890;2022-07-22T03:11:45;99179.97;;;14.70;73.69
70374;BME280;57792;49.198;7.890;2022-07-22T03:12:46;99188.03;;;14.70;73.69
70374;BME280;57792;49.198;7.890;2022-07-22T03:13:46;99175.78;;;14.64;73.77
70374;BME280;57792;49.198;7.890;2022-07-22T03:14:46;99180.22;;;14.65;73.64
70374;BME280;57792;49.198;7.890;2022-07-22T03:15:47;99177.44;;;14.67;73.45
70374;BME280;57792;49.198;7.890;2022-07-22T03:16:47;99174.03;;;14.63;73.69
70374;BME280;57792;49.198;7.890;2022-07-22T03:17:48;99180.22;;;14.65;73.97
70374;BME280;57792;49.198;7.890;2022-07-22T03:18:49;99173.56;;;14.55;73.94
70374;BME280;57792;49.198;7.890;2022-07-22T03:19:49;99177.41;;;14.50;74.21
70374;BME280;57792;49.198;7.890;2022-07-22T03:20:49;99169.59;;;14.45;74.27
70374;BME280;57792;49.198;7.890;2022-07-22T03:21:50;99174.88;;;14.46;73.91
70374;BME280;57792;49.198;7.890;2022-07-22T03:22:50;99166.84;;;14.46;74.02
70374;BME280;57792;49.198;7.890;2022-07-22T03:23:51;99166.69;;;14.50;74.09
70374;BME280;57792;49.198;7.890;2022-07-22T03:24:53;99171.19;;;14.49;73.97
70374;BME280;57792;49.198;7.890;2022-07-22T03:25:55;99162.41;;;14.45;74.63
70374;BME280;57792;49.198;7.890;2022-07-22T03:26:55;99171.19;;;14.49;74.46
70374;BME280;57792;49.198;7.890;2022-07-22T03:27:56;99170.00;;;14.55;74.44
70374;BME280;57792;49.198;7.890;2022-07-22T03:28:57;99174.31;;;14.57;74.62
70374;BME280;57792;49.198;7.890;2022-07-22T03:29:57;99172.84;;;14.52;74.52
70374;BME280;57792;49.198;7.890;2022-07-22T03:30:57;99176.41;;;14.52;74.32
70374;BME280;57792;49.198;7.890;2022-07-22T03:31:58;99169.59;;;14.45;74.35
70374;BME280;57792;49.198;7.890;2022-07-22T03:32:58;99175.25;;;14.39;74.59
70374;BME280;57792;49.198;7.890;2022-07-22T03:33:58;99183.97;;;14.25;76.12
70374;BME280;57792;49.198;7.890;2022-07-22T03:35:00;99182.03;;;14.29;74.98
70374;BME280;57792;49.198;7.890;2022-07-22T03:36:01;99174.69;;;14.32;74.81
70374;BME280;57792;49.198;7.890;2022-07-22T03:37:01;99171.63;;;14.40;74.63
70374;BME280;57792;49.198;7.890;2022-07-22T03:38:02;99174.16;;;14.43;74.54
70374;BME280;57792;49.198;7.890;2022-07-22T03:39:03;99175.97;;;14.42;74.65
70374;BME280;57792;49.198;7.890;2022-07-22T03:40:04;99168.94;;;14.40;74.42
70374;BME280;57792;49.198;7.890;2022-07-22T03:41:05;99171.41;;;14.44;74.42
70374;BME280;57792;49.198;7.890;2022-07-22T03:42:05;99158.16;;;14.41;74.38
70374;BME280;57792;49.198;7.890;2022-07-22T03:43:05;99164.38;;;14.42;74.42
70374;BME280;57792;49.198;7.890;2022-07-22T03:44:06;99168.66;;;14.46;74.27
70374;BME280;57792;49.198;7.890;2022-07-22T03:45:07;99165.03;;;14.47;74.24
70374;BME280;57792;49.198;7.890;2022-07-22T03:46:07;99152.72;;;14.43;74.19
70374;BME280;57792;49.198;7.890;2022-07-22T03:47:07;99165.97;;;14.46;74.14
70374;BME280;57792;49.198;7.890;2022-07-22T03:48:08;99166.34;;;14.38;74.08
70374;BME280;57792;49.198;7.890;2022-07-22T03:49:08;99160.84;;;14.41;73.90
70374;BME280;57792;49.198;7.890;2022-07-22T03:50:09;99169.97;;;14.37;74.35
70374;BME280;57792;49.198;7.890;2022-07-22T03:51:09;99158.59;;;14.32;74.26
70374;BME280;57792;49.198;7.890;2022-07-22T03:52:09;99166.56;;;14.34;74.34
70374;BME280;57792;49.198;7.890;2022-07-22T03:53:10;99167.22;;;14.39;74.24
70374;BME280;57792;49.198;7.890;2022-07-22T03:54:10;99168.94;;;14.40;74.07
70374;BME280;57792;49.198;7.890;2022-07-22T03:55:11;99173.44;;;14.39;74.19
70374;BME280;57792;49.198;7.890;2022-07-22T03:56:11;99170.75;;;14.39;73.84
70374;BME280;57792;49.198;7.890;2022-07-22T03:57:11;99168.22;;;14.36;74.08
70374;BME280;57792;49.198;7.890;2022-07-22T03:58:12;99162.78;;;14.38;73.95
70374;BME280;57792;49.198;7.890;2022-07-22T03:59:12;99164.53;;;14.39;73.68
70374;BME280;57792;49.198;7.890;2022-07-22T04:00:13;99168.72;;;14.44;73.89
70374;BME280;57792;49.198;7.890;2022-07-22T04:01:13;99167.28;;;14.37;74.08
70374;BME280;57792;49.198;7.890;2022-07-22T04:02:14;99160.84;;;14.41;74.04
70374;BME280;57792;49.198;7.890;2022-07-22T04:03:14;99163.66;;;14.38;74.00
70374;BME280;57792;49.198;7.890;2022-07-22T04:04:14;99164.38;;;14.42;73.94
70374;BME280;57792;49.198;7.890;2022-07-22T04:05:15;99171.41;;;14.44;73.80
70374;BME280;57792;49.198;7.890;2022-07-22T04:06:16;99171.19;;;14.49;73.41
70374;BME280;57792;49.198;7.890;2022-07-22T04:07:16;99170.38;;;14.47;73.90
70374;BME280;57792;49.198;7.890;2022-07-22T04:08:17;99162.78;;;14.38;73.94
70374;BME280;57792;49.198;7.890;2022-07-22T04:09:18;99166.28;;;14.40;73.82
70374;BME280;57792;49.198;7.890;2022-07-22T04:10:18;99167.84;;;14.44;73.80
70374;BME280;57792;49.198;7.890;2022-07-22T04:11:19;99162.72;;;14.39;73.77
70374;BME280;57792;49.198;7.890;2022-07-22T04:12:19;99162.88;;;14.36;74.21
70374;BME280;57792;49.198;7.890;2022-07-22T04:13:19;99165.19;;;14.44;73.58
70374;BME280;57792;49.198;7.890;2022-07-22T04:14:20;99164.16;;;14.46;73.56
70374;BME280;57792;49.198;7.890;2022-07-22T04:15:20;99169.75;;;14.42;73.61
70374;BME280;57792;49.198;7.890;2022-07-22T04:16:21;99159.41;;;14.34;73.69
70374;BME280;57792;49.198;7.890;2022-07-22T04:17:21;99172.97;;;14.31;73.94
70374;BME280;57792;49.198;7.890;2022-07-22T04:18:21;99165.69;;;14.33;73.93
70374;BME280;57792;49.198;7.890;2022-07-22T04:19:22;99164.19;;;14.28;74.31
70374;BME280;57792;49.198;7.890;2022-07-22T04:20:22;99153.25;;;14.32;73.75
70374;BME280;57792;49.198;7.890;2022-07-22T04:21:23;99163.66;;;14.38;73.77
70374;BME280;57792;49.198;7.890;2022-07-22T04:22:23;99155.63;;;14.38;73.74
70374;BME280;57792;49.198;7.890;2022-07-22T04:23:23;99153.88;;;14.37;73.84
70374;BME280;57792;49.198;7.890;2022-07-22T04:24:24;99158.16;;;14.41;73.74
70374;BME280;57792;49.198;7.890;2022-07-22T04:25:24;99160.13;;;14.38;73.74
70374;BME280;57792;49.198;7.890;2022-07-22T04:26:24;99149.53;;;14.35;73.70
70374;BME280;57792;49.198;7.890;2022-07-22T04:27:25;99164.38;;;14.42;73.77
70374;BME280;57792;49.198;7.890;2022-07-22T04:28:25;99157.19;;;14.42;73.87
70374;BME280;57792;49.198;7.890;2022-07-22T04:29:26;99160.91;;;14.40;74.05
70374;BME280;57792;49.198;7.890;2022-07-22T04:30:26;99162.56;;;14.42;73.86
70374;BME280;57792;49.198;7.890;2022-07-22T04:31:27;99157.19;;;14.42;73.58
70374;BME280;57792;49.198;7.890;2022-07-22T04:32:27;99157.84;;;14.48;73.81
70374;BME280;57792;49.198;7.890;2022-07-22T04:33:27;99152.00;;;14.39;73.81
70374;BME280;57792;49.198;7.890;2022-07-22T04:34:28;99161.06;;;14.37;74.48
70374;BME280;57792;49.198;7.890;2022-07-22T04:35:28;99156.63;;;14.36;74.12
70374;BME280;57792;49.198;7.890;2022-07-22T04:36:30;99152.59;;;14.27;75.05
70374;BME280;57792;49.198;7.890;2022-07-22T04:37:31;99153.38;;;14.12;75.49
70374;BME280;57792;49.198;7.890;2022-07-22T04:38:31;99148.88;;;14.30;74.63
70374;BME280;57792;49.198;7.890;2022-07-22T04:39:31;99150.25;;;14.38;74.35
70374;BME280;57792;49.198;7.890;2022-07-22T04:40:32;99145.25;;;14.31;74.97
70374;BME280;57792;49.198;7.890;2022-07-22T04:41:32;99145.75;;;14.22;75.16
70374;BME280;57792;49.198;7.890;2022-07-22T04:42:33;99150.41;;;14.35;74.52
70374;BME280;57792;49.198;7.890;2022-07-22T04:43:33;99154.91;;;14.35;74.91
70374;BME280;57792;49.198;7.890;2022-07-22T04:44:33;99149.53;;;14.35;74.55
70374;BME280;57792;49.198;7.890;2022-07-22T04:45:34;99144.97;;;14.37;74.71
70374;BME280;57792;49.198;7.890;2022-07-22T04:46:34;99154.38;;;14.45;74.26
70374;BME280;57792;49.198;7.890;2022-07-22T04:47:34;99148.22;;;14.43;74.57
70374;BME280;57792;49.198;7.890;2022-07-22T04:48:35;99149.78;;;14.48;74.36
70374;BME280;57792;49.198;7.890;2022-07-22T04:49:35;99137.25;;;14.48;74.34
70374;BME280;57792;49.198;7.890;2022-07-22T04:50:36;99144.72;;;14.59;74.14
70374;BME280;57792;49.198;7.890;2022-07-22T04:51:37;99141.91;;;14.62;74.02
70374;BME280;57792;49.198;7.890;2022-07-22T04:52:37;99142.84;;;14.61;74.21
70374;BME280;57792;49.198;7.890;2022-07-22T04:53:38;99146.13;;;14.67;74.25
70374;BME280;57792;49.198;7.890;2022-07-22T04:54:38;99149.88;;;14.63;74.25
70374;BME280;57792;49.198;7.890;2022-07-22T04:55:38;99146.38;;;14.61;74.33
70374;BME280;57792;49.198;7.890;2022-07-22T04:56:39;99143.28;;;14.70;73.98
70374;BME280;57792;49.198;7.890;2022-07-22T04:57:39;99142.09;;;14.76;73.94
70374;BME280;57792;49.198;7.890;2022-07-22T04:58:40;99139.25;;;14.79;73.83
70374;BME280;57792;49.198;7.890;2022-07-22T04:59:40;99127.66;;;14.78;73.88
70374;BME280;57792;49.198;7.890;2022-07-22T05:00:40;99141.47;;;14.88;73.88
70374;BME280;57792;49.198;7.890;2022-07-22T05:01:41;99137.66;;;14.92;73.75
70374;BME280;57792;49.198;7.890;2022-07-22T05:02:41;99132.19;;;14.94;73.62
70374;BME280;57792;49.198;7.890;2022-07-22T05:03:42;99142.53;;;15.01;73.62
70374;BME280;57792;49.198;7.890;2022-07-22T05:04:42;99142.63;;;15.00;73.79
70374;BME280;57792;49.198;7.890;2022-07-22T05:05:43;99135.28;;;15.03;73.58
70374;BME280;57792;49.198;7.890;2022-07-22T05:06:43;99135.13;;;15.06;73.28
70374;BME280;57792;49.198;7.890;2022-07-22T05:07:43;99128.16;;;15.02;73.56
70374;BME280;57792;49.198;7.890;2022-07-22T05:08:44;99129.41;;;15.12;73.56
70374;BME280;57792;49.198;7.890;2022-07-22T05:09:44;99145.13;;;15.20;73.24
70374;BME280;57792;49.198;7.890;2022-07-22T05:10:45;99137.94;;;15.21;73.16
70374;BME280;57792;49.198;7.890;2022-07-22T05:11:45;99137.66;;;15.25;73.07
70374;BME280;57792;49.198;7.890;2022-07-22T05:12:45;99142.25;;;15.23;73.14
70374;BME280;57792;49.198;7.890;2022-07-22T05:13:46;99138.63;;;15.24;73.50
70374;BME280;57792;49.198;7.890;2022-07-22T05:14:46;99140.19;;;15.28;73.48
70374;BME280;57792;49.198;7.890;2022-07-22T05:15:46;99139.00;;;15.34;73.29
70374;BME280;57792;49.198;7.890;2022-07-22T05:16:47;99139.84;;;15.34;73.43
70374;BME280;57792;49.198;7.890;2022-07-22T05:17:47;99133.38;;;15.38;73.34
70374;BME280;57792;49.198;7.890;2022-07-22T05:18:48;99139.28;;;15.45;73.31
70374;BME280;57792;49.198;7.890;2022-07-22T05:19:48;99135.41;;;15.51;73.12
70374;BME280;57792;49.198;7.890;2022-07-22T05:20:49;99139.53;;;15.56;73.31